createdAt,value
2019-05-16T00:00:01.689Z,46.20
2019-05-16T00:01:01.674Z,46.18
2019-05-16T00:02:01.694Z,46.20
2019-05-16T00:03:01.648Z,46.20
2019-05-16T00:04:01.652Z,46.20
2019-05-16T00:05:01.634Z,46.20
2019-05-16T00:06:01.618Z,46.20
2019-05-16T00:07:01.638Z,46.20
2019-05-16T00:08:01.600Z,46.20
2019-05-16T00:09:01.585Z,46.20
2019-05-16T00:10:01.579Z,46.20
2019-05-16T00:11:01.562Z,46.20
2019-05-16T00:12:01.587Z,46.20
2019-05-16T00:13:01.552Z,46.20
2019-05-16T00:14:01.536Z,46.20
2019-05-16T00:15:01.518Z,46.20
2019-05-16T00:16:01.510Z,46.20
2019-05-16T00:17:01.504Z,46.20
2019-05-16T00:18:01.527Z,46.20
2019-05-16T00:19:01.480Z,46.20
2019-05-16T00:20:01.471Z,46.20
2019-05-16T00:21:01.456Z,46.20
2019-05-16T00:22:01.441Z,46.20
2019-05-16T00:23:01.435Z,46.20
2019-05-16T00:24:01.449Z,46.20
2019-05-16T00:25:01.410Z,46.20
2019-05-16T00:26:01.399Z,46.20
2019-05-16T00:27:01.391Z,46.30
2019-05-16T00:28:01.380Z,46.30
2019-05-16T00:29:01.399Z,46.20
2019-05-16T00:30:01.349Z,46.20
2019-05-16T00:31:01.348Z,46.20
2019-05-16T00:32:01.333Z,46.20
2019-05-16T00:33:01.326Z,46.20
2019-05-16T00:34:01.312Z,46.20
2019-05-16T00:35:01.331Z,46.20
2019-05-16T00:36:05.306Z,46.20
2019-05-16T00:37:01.276Z,46.20
2019-05-16T00:38:01.266Z,46.20
2019-05-16T00:39:01.260Z,46.20
2019-05-16T00:40:01.301Z,46.20
2019-05-16T00:41:01.236Z,46.20
2019-05-16T00:42:01.229Z,46.20
2019-05-16T00:43:01.212Z,46.20
2019-05-16T00:44:01.205Z,46.30
2019-05-16T00:45:01.187Z,46.30
2019-05-16T00:46:01.204Z,46.30
2019-05-16T00:47:01.167Z,46.30
2019-05-16T00:48:01.157Z,46.30
2019-05-16T00:49:01.182Z,46.30
2019-05-16T00:50:01.137Z,46.30
2019-05-16T00:51:01.126Z,46.30
2019-05-16T00:52:01.117Z,46.30
2019-05-16T00:53:01.102Z,46.30
2019-05-16T00:54:01.088Z,46.20
2019-05-16T00:55:01.120Z,46.30
2019-05-16T00:56:01.069Z,46.30
2019-05-16T00:57:01.063Z,46.30
2019-05-16T00:58:01.043Z,46.30
2019-05-16T00:59:01.041Z,46.30
2019-05-16T01:00:01.024Z,46.30
2019-05-16T01:01:01.041Z,46.30
2019-05-16T01:02:01.002Z,46.30
2019-05-16T01:03:00.989Z,46.30
2019-05-16T01:04:00.980Z,46.30
2019-05-16T01:05:00.971Z,46.30
2019-05-16T01:06:01.003Z,46.30
2019-05-16T01:07:01.688Z,46.30
2019-05-16T01:08:00.936Z,46.30
2019-05-16T01:09:00.926Z,46.30
2019-05-16T01:10:00.921Z,46.30
2019-05-16T01:11:00.905Z,46.30
2019-05-16T01:12:00.920Z,46.30
2019-05-16T01:13:00.883Z,46.30
2019-05-16T01:14:00.877Z,46.30
2019-05-16T01:15:00.864Z,46.30
2019-05-16T01:16:00.876Z,46.30
2019-05-16T01:17:00.843Z,46.30
2019-05-16T01:18:00.828Z,46.30
2019-05-16T01:19:00.818Z,46.30
2019-05-16T01:20:00.809Z,46.30
2019-05-16T01:21:00.793Z,46.30
2019-05-16T01:22:00.814Z,46.20
2019-05-16T01:23:00.776Z,46.30
2019-05-16T01:24:00.758Z,46.30
2019-05-16T01:25:00.753Z,46.30
2019-05-16T01:26:00.735Z,46.20
2019-05-16T01:27:00.770Z,46.20
2019-05-16T01:28:00.726Z,46.20
2019-05-16T01:29:00.712Z,46.30
2019-05-16T01:30:00.693Z,46.30
2019-05-16T01:31:00.682Z,46.30
2019-05-16T01:32:00.676Z,46.30
2019-05-16T01:33:00.692Z,46.30
2019-05-16T01:34:00.651Z,46.30
2019-05-16T01:35:00.638Z,46.30
2019-05-16T01:36:00.632Z,46.30
2019-05-16T01:37:00.624Z,46.30
2019-05-16T01:38:00.646Z,46.30
2019-05-16T01:39:00.599Z,46.30
2019-05-16T01:40:00.583Z,46.30
2019-05-16T01:41:00.576Z,46.20
2019-05-16T01:42:00.562Z,46.30
2019-05-16T01:43:00.568Z,46.20
2019-05-16T01:44:00.567Z,46.30
2019-05-16T01:45:00.534Z,46.30
2019-05-16T01:46:00.517Z,46.30
2019-05-16T01:47:00.506Z,46.30
2019-05-16T01:48:00.496Z,46.30
2019-05-16T01:49:00.519Z,46.30
2019-05-16T01:50:00.472Z,46.30
2019-05-16T01:51:00.463Z,46.30
2019-05-16T01:52:00.458Z,46.20
2019-05-16T01:53:00.462Z,46.30
2019-05-16T01:54:00.434Z,46.30
2019-05-16T01:55:00.453Z,46.20
2019-05-16T01:56:00.409Z,46.20
2019-05-16T01:57:00.402Z,46.30
2019-05-16T01:58:00.385Z,46.20
2019-05-16T01:59:00.383Z,46.20
2019-05-16T02:00:00.396Z,46.20
2019-05-16T02:01:11.604Z,46.20
2019-05-16T02:02:01.347Z,46.20
2019-05-16T02:03:00.338Z,46.20
2019-05-16T02:04:00.324Z,46.20
2019-05-16T02:05:00.315Z,46.20
2019-05-16T02:06:00.339Z,46.20
2019-05-16T02:07:00.292Z,46.20
2019-05-16T02:08:00.294Z,46.20
2019-05-16T02:09:00.268Z,46.20
2019-05-16T02:10:00.262Z,46.20
2019-05-16T02:11:00.246Z,46.20
2019-05-16T02:12:00.270Z,46.20
2019-05-16T02:13:00.225Z,46.20
2019-05-16T02:14:00.221Z,46.20
2019-05-16T02:15:00.200Z,46.20
2019-05-16T02:16:00.192Z,46.20
2019-05-16T02:17:00.186Z,46.20
2019-05-16T02:18:00.198Z,46.20
2019-05-16T02:19:00.167Z,46.20
2019-05-16T02:20:00.155Z,46.20
2019-05-16T02:21:01.275Z,46.20
2019-05-16T02:22:00.168Z,46.20
2019-05-16T02:23:00.156Z,46.20
2019-05-16T02:24:02.004Z,46.20
2019-05-16T02:25:00.102Z,46.20
2019-05-16T02:26:00.082Z,46.20
2019-05-16T02:27:00.091Z,46.20
2019-05-16T02:28:00.063Z,46.20
2019-05-16T02:29:00.829Z,46.20
2019-05-16T02:30:00.120Z,46.20
2019-05-16T02:31:01.280Z,46.20
2019-05-16T02:32:01.887Z,46.20
2019-05-16T02:33:00.990Z,46.20
2019-05-16T02:34:01.252Z,46.20
2019-05-16T02:35:01.241Z,46.20
2019-05-16T02:36:01.797Z,46.20
2019-05-16T02:37:18.247Z,46.20
2019-05-16T02:38:01.375Z,46.20
2019-05-16T02:39:01.831Z,46.20
2019-05-16T02:40:01.381Z,46.20
2019-05-16T02:41:03.048Z,46.20
2019-05-16T02:42:01.031Z,46.20
2019-05-16T02:43:01.476Z,46.20
2019-05-16T02:44:01.157Z,46.20
2019-05-16T02:45:02.315Z,46.20
2019-05-16T02:46:01.273Z,46.20
2019-05-16T02:47:01.507Z,46.20
2019-05-16T02:48:01.340Z,46.20
2019-05-16T02:49:00.820Z,46.20
2019-05-16T02:50:01.172Z,46.20
2019-05-16T02:51:01.805Z,46.20
2019-05-16T02:52:01.393Z,46.20
2019-05-16T02:53:01.467Z,46.20
2019-05-16T02:54:01.388Z,46.20
2019-05-16T02:55:00.948Z,46.20
2019-05-16T02:56:01.487Z,46.20
2019-05-16T02:57:01.330Z,46.20
2019-05-16T02:58:00.737Z,46.20
2019-05-16T02:59:01.676Z,46.20
2019-05-16T03:00:01.816Z,46.20
2019-05-16T03:01:01.981Z,46.20
2019-05-16T03:02:00.921Z,46.20
2019-05-16T03:03:01.180Z,46.20
2019-05-16T03:04:01.771Z,46.20
2019-05-16T03:05:00.962Z,46.20
2019-05-16T03:06:01.426Z,46.20
2019-05-16T03:07:00.665Z,46.20
2019-05-16T03:08:01.272Z,46.20
2019-05-16T03:09:04.752Z,46.20
2019-05-16T03:10:01.855Z,46.20
2019-05-16T03:11:01.063Z,46.20
2019-05-16T03:12:01.342Z,46.20
2019-05-16T03:13:00.869Z,46.20
2019-05-16T03:14:00.586Z,46.20
2019-05-16T03:15:02.452Z,46.20
2019-05-16T03:16:00.629Z,46.20
2019-05-16T03:17:01.000Z,46.20
2019-05-16T03:18:03.770Z,46.20
2019-05-16T03:19:01.189Z,46.20
2019-05-16T03:20:01.433Z,46.20
2019-05-16T03:21:00.560Z,46.20
2019-05-16T03:22:01.178Z,46.20
2019-05-16T03:23:02.209Z,46.20
2019-05-16T03:24:00.871Z,46.20
2019-05-16T03:25:01.137Z,46.20
2019-05-16T03:26:00.953Z,46.20
2019-05-16T03:27:01.640Z,46.20
2019-05-16T03:28:02.014Z,46.20
2019-05-16T03:29:00.963Z,46.20
2019-05-16T03:30:01.697Z,46.20
2019-05-16T03:31:04.755Z,46.20
2019-05-16T03:32:03.086Z,46.10
2019-05-16T03:33:04.479Z,46.10
2019-05-16T03:34:06.836Z,46.10
2019-05-16T03:35:04.751Z,46.10
2019-05-16T03:36:04.577Z,46.10
2019-05-16T03:37:03.972Z,46.10
2019-05-16T03:38:04.838Z,46.10
2019-05-16T03:39:01.258Z,46.10
2019-05-16T03:40:00.606Z,46.10
2019-05-16T03:41:01.033Z,46.10
2019-05-16T03:42:01.042Z,46.10
2019-05-16T03:43:01.521Z,46.10
2019-05-16T03:44:01.425Z,46.10
2019-05-16T03:45:02.102Z,46.10
2019-05-16T03:46:02.346Z,46.10
2019-05-16T03:47:01.003Z,46.10
2019-05-16T03:48:02.866Z,46.10
2019-05-16T03:49:02.267Z,46.10
2019-05-16T03:50:00.695Z,46.10
2019-05-16T03:51:00.875Z,46.10
2019-05-16T03:52:01.528Z,46.10
2019-05-16T03:53:01.512Z,46.10
2019-05-16T03:54:02.619Z,46.00
2019-05-16T03:55:01.735Z,46.00
2019-05-16T03:56:01.881Z,46.00
2019-05-16T03:57:00.537Z,46.00
2019-05-16T03:58:01.236Z,46.00
2019-05-16T03:59:01.198Z,46.00
2019-05-16T04:00:00.569Z,46.00
2019-05-16T04:01:02.456Z,46.00
2019-05-16T04:02:01.507Z,46.00
2019-05-16T04:03:01.319Z,46.00
2019-05-16T04:04:01.610Z,46.00
2019-05-16T04:05:01.791Z,46.00
2019-05-16T04:06:01.225Z,46.00
2019-05-16T04:07:01.398Z,46.00
2019-05-16T04:08:13.796Z,46.00
2019-05-16T04:09:01.498Z,46.00
2019-05-16T04:10:02.086Z,46.00
2019-05-16T04:11:01.253Z,45.90
2019-05-16T04:12:01.780Z,45.90
2019-05-16T04:13:01.050Z,45.90
2019-05-16T04:14:01.405Z,45.90
2019-05-16T04:15:01.464Z,46.00
2019-05-16T04:16:01.294Z,46.00
2019-05-16T04:17:01.351Z,46.00
2019-05-16T04:18:01.423Z,45.90
2019-05-16T04:19:01.665Z,45.90
2019-05-16T04:20:02.156Z,45.90
2019-05-16T04:21:01.037Z,45.90
2019-05-16T04:22:01.382Z,45.90
2019-05-16T04:23:01.116Z,45.90
2019-05-16T04:24:01.270Z,45.90
2019-05-16T04:25:01.495Z,45.90
2019-05-16T04:26:00.691Z,45.79
2019-05-16T04:27:00.992Z,45.90
2019-05-16T04:28:01.022Z,45.90
2019-05-16T04:29:00.821Z,45.79
2019-05-16T04:30:01.614Z,45.79
2019-05-16T04:31:01.973Z,45.79
2019-05-16T04:32:01.427Z,45.79
2019-05-16T04:33:01.693Z,45.79
2019-05-16T04:34:01.091Z,45.79
2019-05-16T04:35:02.159Z,45.79
2019-05-16T04:36:01.270Z,45.79
2019-05-16T04:37:01.184Z,45.79
2019-05-16T04:38:01.634Z,45.79
2019-05-16T04:39:01.557Z,45.79
2019-05-16T04:40:01.367Z,45.79
2019-05-16T04:41:01.411Z,45.79
2019-05-16T04:42:01.447Z,45.79
2019-05-16T04:43:01.191Z,45.79
2019-05-16T04:44:01.553Z,45.79
2019-05-16T04:45:01.107Z,45.79
2019-05-16T04:46:01.408Z,45.79
2019-05-16T04:47:01.461Z,45.70
2019-05-16T04:48:00.442Z,45.70
2019-05-16T04:49:01.496Z,45.70
2019-05-16T04:50:01.636Z,45.70
2019-05-16T04:51:01.053Z,45.70
2019-05-16T04:52:00.597Z,45.70
2019-05-16T04:53:01.341Z,45.70
2019-05-16T04:54:01.745Z,45.70
2019-05-16T04:55:00.681Z,45.70
2019-05-16T04:56:01.421Z,45.70
2019-05-16T04:57:01.578Z,45.70
2019-05-16T04:58:01.255Z,45.70
2019-05-16T04:59:00.502Z,45.70
2019-05-16T05:00:01.867Z,45.70
2019-05-16T05:01:01.262Z,45.70
2019-05-16T05:02:01.636Z,45.70
2019-05-16T05:03:01.250Z,45.70
2019-05-16T05:04:06.225Z,45.59
2019-05-16T05:05:01.317Z,45.59
2019-05-16T05:06:00.577Z,45.70
2019-05-16T05:07:00.520Z,45.59
2019-05-16T05:08:01.289Z,45.59
2019-05-16T05:09:02.850Z,45.59
2019-05-16T05:10:00.571Z,45.59
2019-05-16T05:11:01.163Z,45.59
2019-05-16T05:12:03.964Z,45.59
2019-05-16T05:13:01.556Z,45.59
2019-05-16T05:14:00.771Z,45.59
2019-05-16T05:15:01.013Z,45.59
2019-05-16T05:16:01.065Z,45.59
2019-05-16T05:17:00.943Z,45.59
2019-05-16T05:18:00.450Z,45.59
2019-05-16T05:19:00.320Z,45.59
2019-05-16T05:20:00.840Z,45.59
2019-05-16T05:21:00.618Z,45.59
2019-05-16T05:22:01.160Z,45.59
2019-05-16T05:23:00.316Z,45.50
2019-05-16T05:24:00.083Z,45.50
2019-05-16T05:25:00.153Z,45.50
2019-05-16T05:26:00.363Z,45.50
2019-05-16T05:26:59.805Z,45.50
2019-05-16T05:28:00.429Z,45.50
2019-05-16T05:28:59.773Z,45.50
2019-05-16T05:29:58.104Z,45.50
2019-05-16T05:30:59.760Z,45.50
2019-05-16T05:32:03.512Z,45.50
2019-05-16T05:33:00.740Z,45.50
2019-05-16T05:34:01.139Z,45.50
2019-05-16T05:34:59.846Z,45.50
2019-05-16T05:36:00.763Z,45.50
2019-05-16T05:37:00.239Z,45.50
2019-05-16T05:38:00.400Z,45.50
2019-05-16T05:39:08.918Z,45.50
2019-05-16T05:39:59.947Z,45.59
2019-05-16T05:41:00.193Z,45.50
2019-05-16T05:41:59.921Z,45.59
2019-05-16T05:42:59.927Z,45.59
2019-05-16T05:43:59.867Z,45.59
2019-05-16T05:45:00.151Z,45.50
2019-05-16T05:46:00.435Z,45.50
2019-05-16T05:47:00.285Z,45.50
2019-05-16T05:48:00.140Z,45.50
2019-05-16T05:48:59.832Z,45.50
2019-05-16T05:50:00.467Z,45.50
2019-05-16T05:51:00.056Z,45.50
2019-05-16T05:51:57.874Z,45.39
2019-05-16T05:52:57.866Z,45.50
2019-05-16T05:54:00.034Z,45.50
2019-05-16T05:55:00.749Z,45.59
2019-05-16T05:56:00.441Z,45.59
2019-05-16T05:56:57.823Z,45.59
2019-05-16T05:57:57.809Z,45.59
2019-05-16T05:58:58.962Z,45.50
2019-05-16T06:00:00.367Z,45.39
2019-05-16T06:01:00.462Z,45.50
2019-05-16T06:02:00.573Z,45.70
2019-05-16T06:02:59.973Z,45.59
2019-05-16T06:03:59.748Z,45.50
2019-05-16T06:04:59.761Z,45.29
2019-05-16T06:05:57.726Z,45.39
2019-05-16T06:06:57.713Z,45.39
2019-05-16T06:08:00.167Z,45.39
2019-05-16T06:08:57.689Z,45.39
2019-05-16T06:10:00.215Z,45.39
2019-05-16T06:10:57.701Z,45.59
2019-05-16T06:11:57.662Z,45.59
2019-05-16T06:12:57.646Z,45.70
2019-05-16T06:13:57.637Z,45.59
2019-05-16T06:14:57.650Z,45.59
2019-05-16T06:16:00.018Z,45.70
2019-05-16T06:17:00.202Z,45.59
2019-05-16T06:18:00.058Z,45.70
2019-05-16T06:18:57.584Z,45.70
2019-05-16T06:19:57.570Z,45.70
2019-05-16T06:20:57.565Z,45.70
2019-05-16T06:21:57.580Z,45.79
2019-05-16T06:22:59.870Z,45.79
2019-05-16T06:23:59.798Z,45.79
2019-05-16T06:24:57.545Z,45.90
2019-05-16T06:26:00.184Z,45.90
2019-05-16T06:26:57.499Z,46.00
2019-05-16T06:28:00.042Z,46.00
2019-05-16T06:28:57.509Z,46.10
2019-05-16T06:29:58.169Z,46.10
2019-05-16T06:30:57.453Z,46.10
2019-05-16T06:31:57.443Z,46.10
2019-05-16T06:32:59.566Z,46.10
2019-05-16T06:33:57.428Z,46.10
2019-05-16T06:34:57.443Z,46.10
2019-05-16T06:35:57.423Z,46.10
2019-05-16T06:36:57.390Z,46.10
2019-05-16T06:37:57.381Z,46.10
2019-05-16T06:38:57.371Z,46.10
2019-05-16T06:39:57.403Z,46.10
2019-05-16T06:41:00.059Z,46.00
2019-05-16T06:41:57.336Z,46.00
2019-05-16T06:42:57.326Z,46.00
2019-05-16T06:43:57.316Z,46.00
2019-05-16T06:44:57.305Z,46.10
2019-05-16T06:45:57.327Z,46.10
2019-05-16T06:47:15.039Z,46.20
2019-05-16T06:47:58.284Z,46.30
2019-05-16T06:48:59.582Z,46.40
2019-05-16T06:49:57.255Z,46.50
2019-05-16T06:50:57.247Z,46.40
2019-05-16T06:51:59.546Z,46.20
2019-05-16T06:52:57.218Z,46.10
2019-05-16T06:53:57.207Z,46.20
2019-05-16T06:54:57.200Z,46.30
2019-05-16T06:55:57.185Z,46.40
2019-05-16T06:56:57.171Z,46.50
2019-05-16T06:57:57.474Z,46.60
2019-05-16T06:58:57.154Z,46.60
2019-05-16T06:59:57.140Z,46.60
2019-05-16T07:00:59.423Z,46.60
2019-05-16T07:02:00.275Z,46.60
2019-05-16T07:02:57.113Z,46.70
2019-05-16T07:03:57.136Z,46.80
2019-05-16T07:04:57.091Z,46.80
2019-05-16T07:05:57.080Z,46.91
2019-05-16T07:07:02.002Z,46.91
2019-05-16T07:07:59.811Z,46.80
2019-05-16T07:08:57.067Z,46.80
2019-05-16T07:10:00.633Z,46.80
2019-05-16T07:10:59.995Z,46.80
2019-05-16T07:11:57.013Z,46.70
2019-05-16T07:12:56.999Z,46.70
2019-05-16T07:13:57.010Z,46.60
2019-05-16T07:14:56.977Z,46.60
2019-05-16T07:15:57.013Z,46.60
2019-05-16T07:16:56.950Z,46.60
2019-05-16T07:17:56.940Z,46.60
2019-05-16T07:18:56.935Z,46.70
2019-05-16T07:19:56.925Z,47.00
2019-05-16T07:20:56.909Z,47.11
2019-05-16T07:21:56.932Z,47.00
2019-05-16T07:22:56.905Z,47.41
2019-05-16T07:23:56.881Z,47.41
2019-05-16T07:24:56.861Z,47.51
2019-05-16T07:25:56.864Z,47.41
2019-05-16T07:26:56.845Z,47.41
2019-05-16T07:27:56.873Z,47.31
2019-05-16T07:28:56.819Z,47.41
2019-05-16T07:29:58.437Z,47.61
2019-05-16T07:30:56.798Z,47.61
2019-05-16T07:31:56.791Z,47.51
2019-05-16T07:32:56.778Z,47.61
2019-05-16T07:33:56.799Z,47.51
2019-05-16T07:34:56.785Z,47.51
2019-05-16T07:35:56.745Z,47.61
2019-05-16T07:36:56.735Z,47.61
2019-05-16T07:37:56.723Z,47.71
2019-05-16T07:38:56.711Z,47.71
2019-05-16T07:39:56.699Z,47.31
2019-05-16T07:40:56.720Z,47.11
2019-05-16T07:41:56.679Z,47.51
2019-05-16T07:42:56.670Z,47.51
2019-05-16T07:43:56.657Z,47.61
2019-05-16T07:44:56.650Z,47.71
2019-05-16T07:45:56.674Z,47.81
2019-05-16T07:46:56.625Z,47.81
2019-05-16T07:47:56.611Z,47.91
2019-05-16T07:48:56.608Z,47.91
2019-05-16T07:49:56.587Z,47.81
2019-05-16T07:50:56.613Z,47.91
2019-05-16T07:51:56.564Z,47.91
2019-05-16T07:52:56.558Z,47.81
2019-05-16T07:53:56.542Z,47.91
2019-05-16T07:54:56.538Z,47.91
2019-05-16T07:55:56.521Z,47.71
2019-05-16T07:57:07.942Z,47.61
2019-05-16T07:57:59.587Z,47.61
2019-05-16T07:58:56.491Z,47.20
2019-05-16T07:59:56.482Z,46.91
2019-05-16T08:01:02.444Z,46.80
2019-05-16T08:01:57.491Z,46.70
2019-05-16T08:02:56.449Z,46.91
2019-05-16T08:03:56.438Z,47.11
2019-05-16T08:04:56.429Z,47.20
2019-05-16T08:05:56.416Z,47.11
2019-05-16T08:06:56.402Z,47.20
2019-05-16T08:07:56.418Z,47.20
2019-05-16T08:08:56.378Z,47.11
2019-05-16T08:09:56.365Z,47.11
2019-05-16T08:10:56.356Z,47.11
2019-05-16T08:11:56.357Z,47.11
2019-05-16T08:12:56.380Z,47.11
2019-05-16T08:13:56.327Z,47.00
2019-05-16T08:14:56.311Z,47.00
2019-05-16T08:15:56.303Z,46.80
2019-05-16T08:16:56.295Z,46.80
2019-05-16T08:17:56.285Z,47.00
2019-05-16T08:18:56.317Z,46.91
2019-05-16T08:19:56.259Z,46.80
2019-05-16T08:20:56.251Z,46.80
2019-05-16T08:21:56.237Z,46.80
2019-05-16T08:22:56.225Z,46.70
2019-05-16T08:23:56.223Z,46.50
2019-05-16T08:24:56.247Z,46.50
2019-05-16T08:25:56.198Z,46.50
2019-05-16T08:26:56.180Z,46.70
2019-05-16T08:27:56.167Z,46.80
2019-05-16T08:28:56.164Z,46.30
2019-05-16T08:29:56.146Z,45.90
2019-05-16T08:30:56.166Z,46.10
2019-05-16T08:31:56.132Z,46.50
2019-05-16T08:32:56.124Z,46.00
2019-05-16T08:33:56.108Z,46.10
2019-05-16T08:34:56.107Z,45.98
2019-05-16T08:35:56.109Z,45.98
2019-05-16T08:36:56.079Z,46.18
2019-05-16T08:37:56.063Z,46.28
2019-05-16T08:38:56.055Z,46.18
2019-05-16T08:39:56.044Z,46.18
2019-05-16T08:42:57.008Z,45.87
2019-05-16T08:43:56.003Z,45.78
2019-05-16T08:44:55.989Z,45.67
2019-05-16T08:45:55.983Z,46.28
2019-05-16T08:47:56.949Z,46.18
2019-05-16T08:48:55.946Z,46.18
2019-05-16T08:49:55.940Z,46.08
2019-05-16T08:50:09.882Z,46.18
2019-05-16T08:50:11.088Z,46.18
2019-05-16T08:50:55.931Z,46.18
2019-05-16T08:51:55.950Z,46.18
2019-05-16T08:52:55.973Z,46.18
2019-05-16T08:53:55.892Z,46.18
2019-05-16T08:54:55.893Z,46.18
2019-05-16T08:55:55.866Z,46.18
2019-05-16T08:56:55.884Z,46.08
2019-05-16T08:57:55.870Z,45.87
2019-05-16T08:58:55.837Z,45.67
2019-05-16T08:59:55.820Z,45.87
2019-05-16T09:00:56.028Z,46.08
2019-05-16T09:02:56.824Z,45.87
2019-05-16T09:03:55.777Z,45.98
2019-05-16T09:04:55.885Z,45.78
2019-05-16T09:05:55.750Z,45.87
2019-05-16T09:06:55.744Z,46.08
2019-05-16T09:08:00.670Z,45.87
2019-05-16T09:08:59.613Z,46.08
2019-05-16T09:10:00.188Z,45.98
2019-05-16T09:11:02.047Z,45.87
2019-05-16T09:11:57.523Z,45.98
2019-05-16T09:12:57.242Z,46.08
2019-05-16T09:13:57.249Z,46.18
2019-05-16T09:14:59.348Z,46.18
2019-05-16T09:15:57.113Z,46.08
2019-05-16T09:16:57.983Z,46.38
2019-05-16T09:17:58.173Z,46.28
2019-05-16T09:18:30.614Z,45.87
2019-05-16T09:18:30.896Z,45.98
2019-05-16T09:18:57.551Z,46.38
2019-05-16T09:19:57.711Z,46.18
2019-05-16T09:20:57.844Z,46.28
2019-05-16T09:21:58.054Z,46.28
2019-05-16T09:22:57.873Z,46.28
2019-05-16T09:23:57.806Z,46.28
2019-05-16T09:24:57.712Z,46.08
2019-05-16T09:25:58.409Z,46.08
2019-05-16T09:26:57.883Z,46.18
2019-05-16T09:27:56.952Z,46.08
2019-05-16T09:28:57.008Z,46.18
2019-05-16T09:29:56.835Z,45.98
2019-05-16T09:30:57.743Z,46.08
2019-05-16T09:32:08.888Z,46.08
2019-05-16T09:32:58.797Z,46.28
2019-05-16T09:33:56.714Z,46.38
2019-05-16T09:34:57.329Z,46.28
2019-05-16T09:35:57.265Z,45.98
2019-05-16T09:37:00.471Z,45.78
2019-05-16T09:37:57.575Z,45.67
2019-05-16T09:38:57.756Z,45.98
2019-05-16T09:39:57.288Z,46.08
2019-05-16T09:40:56.951Z,45.98
2019-05-16T09:41:58.605Z,46.08
2019-05-16T09:42:56.825Z,45.87
2019-05-16T09:43:58.656Z,45.87
2019-05-16T09:44:57.699Z,45.87
2019-05-16T09:46:03.219Z,46.18
2019-05-16T09:46:56.986Z,46.08
2019-05-16T09:47:57.410Z,45.98
2019-05-16T09:49:13.024Z,45.87
2019-05-16T09:49:57.969Z,46.38
2019-05-16T09:50:57.705Z,46.58
2019-05-16T09:51:56.797Z,46.58
2019-05-16T09:52:56.555Z,46.58
2019-05-16T09:53:56.719Z,46.58
2019-05-16T09:54:57.508Z,46.28
2019-05-16T09:55:57.350Z,46.28
2019-05-16T09:56:57.147Z,46.28
2019-05-16T09:57:58.424Z,46.28
2019-05-16T09:58:57.438Z,46.18
2019-05-16T09:59:57.231Z,46.38
2019-05-16T10:00:57.556Z,46.48
2019-05-16T10:01:57.163Z,46.38
2019-05-16T10:02:57.795Z,46.08
2019-05-16T10:03:55.114Z,46.18
2019-05-16T10:04:57.752Z,46.48
2019-05-16T10:05:57.207Z,46.48
2019-05-16T10:06:57.205Z,46.38
2019-05-16T10:07:57.446Z,46.48
2019-05-16T10:08:56.940Z,46.48
2019-05-16T10:09:57.106Z,46.48
2019-05-16T10:10:57.149Z,46.28
2019-05-16T10:12:08.142Z,46.38
2019-05-16T10:12:56.038Z,46.28
2019-05-16T10:13:54.997Z,46.48
2019-05-16T10:14:55.037Z,46.38
2019-05-16T10:15:54.981Z,46.28
2019-05-16T10:16:54.972Z,46.28
2019-05-16T10:17:57.355Z,46.48
2019-05-16T10:18:56.750Z,46.58
2019-05-16T10:19:56.475Z,46.28
2019-05-16T10:20:59.014Z,46.28
2019-05-16T10:21:59.937Z,46.18
2019-05-16T10:22:57.997Z,46.18
2019-05-16T10:23:56.433Z,46.08
2019-05-16T10:24:57.160Z,45.87
2019-05-16T10:25:56.809Z,45.78
2019-05-16T10:26:57.035Z,45.67
2019-05-16T10:27:54.846Z,45.67
2019-05-16T10:28:57.492Z,45.67
2019-05-16T10:29:57.480Z,45.67
2019-05-16T10:30:56.908Z,45.87
2019-05-16T10:31:56.849Z,45.87
2019-05-16T10:32:54.819Z,45.87
2019-05-16T10:33:57.681Z,45.87
2019-05-16T10:34:57.125Z,45.78
2019-05-16T10:35:54.763Z,45.78
2019-05-16T10:36:57.335Z,45.87
2019-05-16T10:37:57.478Z,45.78
2019-05-16T10:38:58.799Z,45.78
2019-05-16T10:39:56.684Z,45.87
2019-05-16T10:40:56.602Z,45.98
2019-05-16T10:41:57.186Z,45.98
2019-05-16T10:42:57.659Z,45.98
2019-05-16T10:43:56.689Z,45.98
2019-05-16T10:44:57.446Z,45.98
2019-05-16T10:45:54.681Z,46.08
2019-05-16T10:46:54.643Z,46.08
2019-05-16T10:47:54.632Z,46.08
2019-05-16T10:48:54.627Z,45.98
2019-05-16T10:49:56.422Z,45.98
2019-05-16T10:50:57.420Z,46.08
2019-05-16T10:51:54.584Z,46.08
2019-05-16T10:53:20.508Z,46.08
2019-05-16T10:54:09.136Z,46.08
2019-05-16T10:55:01.453Z,46.08
2019-05-16T10:55:57.156Z,46.08
2019-05-16T10:56:57.368Z,46.08
2019-05-16T10:57:56.642Z,46.08
2019-05-16T10:59:34.814Z,46.08
2019-05-16T11:00:06.519Z,46.08
2019-05-16T11:01:15.621Z,46.08
2019-05-16T11:01:56.352Z,46.08
2019-05-16T11:02:58.763Z,46.08
2019-05-16T11:03:56.806Z,46.08
2019-05-16T11:05:06.278Z,46.08
2019-05-16T11:06:02.968Z,46.08
2019-05-16T11:06:57.208Z,46.08
2019-05-16T11:07:57.121Z,46.08
2019-05-16T11:08:57.004Z,46.08
2019-05-16T11:10:01.393Z,46.08
2019-05-16T11:10:57.136Z,46.08
2019-05-16T11:11:56.966Z,46.08
2019-05-16T11:12:59.126Z,46.08
2019-05-16T11:13:55.377Z,46.08
2019-05-16T11:14:54.336Z,46.06
2019-05-16T11:15:54.345Z,46.08
2019-05-16T11:16:54.314Z,46.08
2019-05-16T11:17:54.294Z,46.08
2019-05-16T11:18:54.285Z,46.08
2019-05-16T11:19:54.307Z,46.08
2019-05-16T11:20:54.269Z,46.08
2019-05-16T11:21:54.259Z,46.08
2019-05-16T11:22:56.966Z,46.08
2019-05-16T11:23:56.461Z,46.08
2019-05-16T11:24:56.447Z,46.08
2019-05-16T11:25:55.474Z,46.08
2019-05-16T11:26:56.665Z,46.08
2019-05-16T11:27:54.193Z,46.18
2019-05-16T11:28:56.597Z,46.08
2019-05-16T11:29:56.518Z,46.08
2019-05-16T11:30:54.164Z,46.08
2019-05-16T11:31:54.181Z,46.08
2019-05-16T11:32:56.596Z,46.08
2019-05-16T11:33:54.126Z,46.08
2019-05-16T11:34:54.114Z,46.08
2019-05-16T11:35:54.103Z,46.18
2019-05-16T11:36:54.090Z,46.15
2019-05-16T11:37:54.120Z,46.18
2019-05-16T11:38:58.550Z,46.18
2019-05-16T11:39:57.070Z,46.06
2019-05-16T11:40:56.645Z,46.06
2019-05-16T11:41:54.043Z,46.18
2019-05-16T11:43:06.547Z,46.36
2019-05-16T11:43:56.881Z,46.38
2019-05-16T11:44:54.008Z,46.66
2019-05-16T11:45:53.994Z,46.88
2019-05-16T11:46:53.989Z,46.86
2019-05-16T11:47:53.973Z,46.86
2019-05-16T11:48:53.964Z,46.76
2019-05-16T11:49:53.984Z,46.76
2019-05-16T11:50:56.767Z,46.66
2019-05-16T11:51:53.934Z,46.86
2019-05-16T11:52:53.928Z,46.96
2019-05-16T11:53:53.914Z,46.76
2019-05-16T11:54:53.906Z,46.66
2019-05-16T11:55:57.615Z,46.86
2019-05-16T11:56:56.950Z,46.76
2019-05-16T11:57:53.873Z,46.96
2019-05-16T11:58:53.865Z,46.86
2019-05-16T11:59:56.704Z,46.96
2019-05-16T12:00:53.843Z,47.06
2019-05-16T12:01:53.862Z,47.06
2019-05-16T12:02:53.817Z,46.96
2019-05-16T12:03:53.809Z,46.96
2019-05-16T12:04:53.798Z,46.86
2019-05-16T12:05:53.782Z,46.96
2019-05-16T12:06:53.779Z,47.26
2019-05-16T12:07:57.181Z,47.06
2019-05-16T12:08:53.747Z,46.86
2019-05-16T12:09:55.750Z,46.86
2019-05-16T12:10:53.732Z,46.96
2019-05-16T12:12:02.686Z,46.96
2019-05-16T12:12:56.832Z,46.96
2019-05-16T12:13:53.698Z,46.96
2019-05-16T12:14:56.002Z,46.96
2019-05-16T12:15:53.673Z,46.96
2019-05-16T12:16:53.658Z,46.86
2019-05-16T12:18:02.082Z,46.86
2019-05-16T12:18:57.006Z,46.86
2019-05-16T12:19:53.626Z,46.86
2019-05-16T12:20:53.614Z,46.96
2019-05-16T12:21:53.606Z,46.86
2019-05-16T12:22:53.598Z,46.96
2019-05-16T12:23:53.588Z,46.86
2019-05-16T12:24:53.606Z,46.96
2019-05-16T12:25:53.562Z,46.96
2019-05-16T12:26:53.553Z,46.96
2019-05-16T12:27:53.546Z,46.86
2019-05-16T12:28:53.529Z,46.86
2019-05-16T12:29:56.252Z,47.26
2019-05-16T12:30:56.316Z,47.56
2019-05-16T12:31:58.397Z,47.66
2019-05-16T12:32:57.895Z,47.77
2019-05-16T12:33:53.481Z,47.66
2019-05-16T12:34:53.464Z,47.77
2019-05-16T12:35:53.478Z,47.97
2019-05-16T12:36:53.449Z,47.66
2019-05-16T12:37:53.473Z,47.77
2019-05-16T12:38:53.427Z,47.77
2019-05-16T12:39:53.412Z,47.56
2019-05-16T12:40:53.399Z,47.56
2019-05-16T12:41:53.385Z,47.56
2019-05-16T12:42:54.457Z,47.56
2019-05-16T12:43:53.764Z,47.56
2019-05-16T12:44:53.355Z,47.56
2019-05-16T12:45:53.344Z,47.66
2019-05-16T12:46:53.336Z,47.86
2019-05-16T12:47:53.323Z,48.07
2019-05-16T12:48:53.356Z,47.86
2019-05-16T12:49:53.301Z,47.77
2019-05-16T12:50:53.292Z,47.77
2019-05-16T12:51:53.284Z,47.77